Navigator Spirit — C6WL4 — position and weather

sailwx.info

Track history (hours):
 
Tides and Currents Weather Stations Pressure Air Temp Water Temp Dewpoint Dewpoint Depression Visibility Wind Speed Wind Dir Waves Ship Positions

Navigator Spirit

Last reported at 2016-Sep-21 19:17 UTC. Time now 2016-Sep-30 06:38 UTC.
Position N 29°57' W 090°18'.
Warning: this ship's position is 8 days out of date.

Length 241 m; draft 11.6 m.

Type: Tanker. MMSI: 309198000.

Date/timePositionNaut miles runAvg speedWind from/ knotsBaromVisibWave heightAir tempDewpointWater temp
2016-Sep-21 19:17N 29°57' W 090°18'1 0.3
2016-Sep-21 16:33N 29°58' W 090°18'0 0.0
2016-Sep-21 09:33N 29°58' W 090°18'0 0.0
2016-Sep-21 08:33N 29°58' W 090°18'0 0.0
2016-Sep-21 05:33N 29°58' W 090°18'0 0.0
2016-Sep-21 03:33N 29°58' W 090°18'0 0.0
2016-Sep-21 02:33N 29°58' W 090°18'0 0.0
2016-Sep-20 17:33N 29°58' W 090°18'0 0.0
2016-Sep-20 14:33N 29°58' W 090°18'0 0.0
2016-Sep-20 13:30N 29°58' W 090°18'0 0.0
2016-Sep-20 10:33N 29°58' W 090°18'0 0.0
2016-Sep-20 08:33N 29°58' W 090°18'0 0.0
2016-Sep-20 07:33N 29°58' W 090°18'0 0.0
2016-Sep-20 06:33N 29°58' W 090°18'0 0.0
2016-Sep-20 02:33N 29°58' W 090°18'0 0.0
2016-Sep-19 23:30N 29°58' W 090°18'0 0.1
2016-Sep-19 19:33N 29°58' W 090°17'6 5.9
2016-Sep-19 18:33N 29°56' W 090°11'  
2016-Sep-16 17:31N 30°11' W 093°18'0 0.0
2016-Sep-16 15:31N 30°11' W 093°18'0 0.0
2016-Sep-16 12:31N 30°11' W 093°18'1 0.4
2016-Sep-16 09:33N 30°10' W 093°19'1 0.2
2016-Sep-16 07:31N 30°10' W 093°20'0 0.0
2016-Sep-16 03:31N 30°10' W 093°20'0 0.0
2016-Sep-16 02:31N 30°10' W 093°20'0 0.0
2016-Sep-16 00:31N 30°10' W 093°20'0 0.0
2016-Sep-15 22:31N 30°10' W 093°20'0 0.0
2016-Sep-15 21:31N 30°10' W 093°20'0 0.0
2016-Sep-15 20:31N 30°10' W 093°20'0 0.0
2016-Sep-15 18:31N 30°10' W 093°20'0 0.0
2016-Sep-15 12:31N 30°10' W 093°20'0 0.0
2016-Sep-15 11:28N 30°10' W 093°20'0 0.0
2016-Sep-15 04:31N 30°10' W 093°20'0 0.0
2016-Sep-15 03:31N 30°10' W 093°20'0 0.0
2016-Sep-15 01:31N 30°10' W 093°20'0 0.0
2016-Sep-14 22:31N 30°10' W 093°20'0 0.0
2016-Sep-14 21:33N 30°10' W 093°20'22 5.4
2016-Sep-14 17:33N 29°48' W 093°21'  
Track history (hours):
 
Tides and Currents Weather Stations Pressure Air Temp Water Temp Dewpoint Dewpoint Depression Visibility Wind Speed Wind Dir Waves Ship Positions

Navigator Spirit

Last reported at 2016-Sep-21 19:17 UTC. Time now 2016-Sep-30 06:38 UTC.
Position N 29°57' W 090°18'.
Warning: this ship's position is 8 days out of date.

Length 241 m; draft 11.6 m.

Type: Tanker. MMSI: 309198000.

Date/timePositionNaut miles runAvg speedWind from/ knotsBaromVisibWave heightAir tempDewpointWater temp
2016-Sep-21 19:17N 29°57' W 090°18'1 0.3
2016-Sep-21 16:33N 29°58' W 090°18'0 0.0
2016-Sep-21 09:33N 29°58' W 090°18'0 0.0
2016-Sep-21 08:33N 29°58' W 090°18'0 0.0
2016-Sep-21 05:33N 29°58' W 090°18'0 0.0
2016-Sep-21 03:33N 29°58' W 090°18'0 0.0
2016-Sep-21 02:33N 29°58' W 090°18'0 0.0
2016-Sep-20 17:33N 29°58' W 090°18'0 0.0
2016-Sep-20 14:33N 29°58' W 090°18'0 0.0
2016-Sep-20 13:30N 29°58' W 090°18'0 0.0
2016-Sep-20 10:33N 29°58' W 090°18'0 0.0
2016-Sep-20 08:33N 29°58' W 090°18'0 0.0
2016-Sep-20 07:33N 29°58' W 090°18'0 0.0
2016-Sep-20 06:33N 29°58' W 090°18'0 0.0
2016-Sep-20 02:33N 29°58' W 090°18'0 0.0
2016-Sep-19 23:30N 29°58' W 090°18'0 0.1
2016-Sep-19 19:33N 29°58' W 090°17'6 5.9
2016-Sep-19 18:33N 29°56' W 090°11'  
2016-Sep-16 17:31N 30°11' W 093°18'0 0.0
2016-Sep-16 15:31N 30°11' W 093°18'0 0.0
2016-Sep-16 12:31N 30°11' W 093°18'1 0.4
2016-Sep-16 09:33N 30°10' W 093°19'1 0.2
2016-Sep-16 07:31N 30°10' W 093°20'0 0.0
2016-Sep-16 03:31N 30°10' W 093°20'0 0.0
2016-Sep-16 02:31N 30°10' W 093°20'0 0.0
2016-Sep-16 00:31N 30°10' W 093°20'0 0.0
2016-Sep-15 22:31N 30°10' W 093°20'0 0.0
2016-Sep-15 21:31N 30°10' W 093°20'0 0.0
2016-Sep-15 20:31N 30°10' W 093°20'0 0.0
2016-Sep-15 18:31N 30°10' W 093°20'0 0.0
2016-Sep-15 12:31N 30°10' W 093°20'0 0.0
2016-Sep-15 11:28N 30°10' W 093°20'0 0.0
2016-Sep-15 04:31N 30°10' W 093°20'0 0.0
2016-Sep-15 03:31N 30°10' W 093°20'0 0.0
2016-Sep-15 01:31N 30°10' W 093°20'0 0.0
2016-Sep-14 22:31N 30°10' W 093°20'0 0.0
2016-Sep-14 21:33N 30°10' W 093°20'22 5.4
2016-Sep-14 17:33N 29°48' W 093°21'  

Dump ship's entire track history